Time;durP1;ratioP1;P1;durP2;ratioP2;P2;SDS_P1;SDS_P2;PMS_P1;PMS_P2;Temp;Humidity;BMP_temperature;BMP_pressure;BME280_temperature;BME280_humidity;BME280_pressure;Samples;Min_cycle;Max_cycle;Signal;HPM_P1;HPM_P2
2022/01/02 00:01:43;;;;;;;;;39.50;33.00;;;;;11.79;70.02;101893.06;6341605;22;45286;-79
2022/01/02 00:04:14;;;;;;;;;40.50;35.00;;;;;11.82;69.97;101884.25;6341585;22;45282;-79
2022/01/02 00:06:54;;;;;;;;;39.00;32.00;;;;;11.81;69.53;101893.91;6341081;22;46579;-79
2022/01/02 00:09:22;;;;;;;;;33.50;30.00;;;;;11.82;69.48;101874.56;6341872;22;45702;-79
2022/01/02 00:11:52;;;;;;;;;38.25;31.50;;;;;11.84;69.70;101877.16;6340881;22;45226;-80
2022/01/02 00:14:22;;;;;;;;;38.50;30.50;;;;;11.86;69.45;101882.38;6341114;22;45606;-80
2022/01/02 00:16:50;;;;;;;;;34.00;32.00;;;;;11.84;69.47;101879.81;6341280;22;45363;-80
2022/01/02 00:19:27;;;;;;;;;38.25;35.00;;;;;11.85;69.29;101870.13;6341153;22;45974;-79
2022/01/02 00:21:55;;;;;;;;;39.25;33.00;;;;;11.85;69.38;101873.66;6340768;22;45265;-79
2022/01/02 00:24:21;;;;;;;;;37.50;33.00;;;;;11.86;69.44;101870.09;6341236;22;45415;-79
2022/01/02 00:26:48;;;;;;;;;36.50;32.50;;;;;11.85;69.58;101871.00;6340970;22;46221;-79
2022/01/02 00:29:14;;;;;;;;;34.50;30.50;;;;;11.85;69.42;101865.75;6341078;22;45139;-79
2022/01/02 00:31:41;;;;;;;;;34.50;31.25;;;;;11.86;69.09;101872.72;6341433;22;45251;-80
2022/01/02 00:34:08;;;;;;;;;35.25;31.25;;;;;11.84;69.18;101871.91;6341397;22;45445;-79
2022/01/02 00:36:35;;;;;;;;;38.25;32.75;;;;;11.85;69.16;101867.50;6341202;22;46432;-80
2022/01/02 00:39:01;;;;;;;;;37.00;31.75;;;;;11.86;69.15;101872.72;6341237;22;45219;-79
2022/01/02 00:41:34;;;;;;;;;35.75;31.25;;;;;11.84;68.96;101861.38;6341088;22;45441;-79
2022/01/02 00:44:15;;;;;;;;;38.50;32.50;;;;;11.87;69.36;101884.13;6341615;22;45314;-80
2022/01/02 00:46:51;;;;;;;;;32.00;31.00;;;;;11.86;69.38;101880.63;6341213;22;45443;-80
2022/01/02 00:49:20;;;;;;;;;40.25;32.75;;;;;11.87;69.25;101882.38;6341445;22;45820;-80
2022/01/02 00:51:53;;;;;;;;;36.00;32.00;;;;;11.89;69.00;101885.84;6340803;22;45219;-80
2022/01/02 00:54:22;;;;;;;;;34.50;30.75;;;;;11.90;69.24;101874.38;6341121;22;45337;-80
2022/01/02 00:56:52;;;;;;;;;34.50;31.75;;;;;11.88;69.17;101880.59;6340628;22;45326;-80
2022/01/02 00:59:28;;;;;;;;;38.75;32.25;;;;;11.90;69.20;101876.19;6340831;22;45381;-80
2022/01/02 01:02:03;;;;;;;;;37.25;33.00;;;;;11.93;68.90;101871.69;6341150;22;45362;-80
2022/01/02 01:04:34;;;;;;;;;33.75;30.75;;;;;11.92;69.28;101861.22;6340899;22;45463;-80
2022/01/02 01:07:04;;;;;;;;;38.50;33.00;;;;;11.90;69.35;101848.03;6341062;22;45190;-80
2022/01/02 01:09:31;;;;;;;;;29.25;29.25;;;;;11.91;69.28;101841.91;6341610;22;45321;-81
2022/01/02 01:12:02;;;;;;;;;33.25;28.25;;;;;11.91;69.08;101838.38;6341038;22;45190;-80
2022/01/02 01:14:29;;;;;;;;;34.25;31.25;;;;;11.93;69.31;101840.09;6312351;22;47304;-80
2022/01/02 01:16:54;;;;;;;;;36.25;32.00;;;;;11.92;68.95;101835.75;6341105;22;46020;-79
2022/01/02 01:19:22;;;;;;;;;35.00;30.00;;;;;11.94;69.04;101833.06;6341395;22;45375;-79
2022/01/02 01:21:48;;;;;;;;;31.75;29.75;;;;;11.95;69.11;101820.75;6340595;22;45297;-79
2022/01/02 01:24:14;;;;;;;;;30.50;29.25;;;;;11.96;69.20;101801.41;6341013;22;45246;-79
2022/01/02 01:26:40;;;;;;;;;28.75;26.75;;;;;11.94;69.27;101796.16;6340648;22;46187;-79
2022/01/02 01:29:05;;;;;;;;;29.00;28.50;;;;;11.93;69.12;101795.31;6341210;22;45492;-79
2022/01/02 01:31:31;;;;;;;;;29.50;28.50;;;;;11.96;69.16;101790.84;6341457;22;45317;-80
2022/01/02 01:33:56;;;;;;;;;31.50;29.00;;;;;11.96;69.25;101793.50;6341061;22;45288;-80
2022/01/02 01:36:22;;;;;;;;;35.25;30.25;;;;;11.98;69.45;101807.50;6340932;22;46174;-79
2022/01/02 01:38:47;;;;;;;;;32.25;31.00;;;;;11.98;69.01;101804.84;6341250;22;45234;-80
2022/01/02 01:41:36;;;;;;;;;36.50;31.75;;;;;11.98;68.97;101799.59;6340630;22;45408;-80
2022/01/02 01:46:41;;;;;;;;;31.50;29.25;;;;;12.03;68.90;101813.53;6340873;22;45195;-80
2022/01/02 01:49:20;;;;;;;;;34.00;31.50;;;;;12.02;69.14;101815.34;6341014;22;45388;-80
2022/01/02 01:51:46;;;;;;;;;32.50;28.00;;;;;12.00;69.03;101813.63;6341119;22;45280;-80
2022/01/02 01:54:12;;;;;;;;;30.00;27.25;;;;;12.00;68.96;101805.72;6340839;22;45163;-80
2022/01/02 01:56:38;;;;;;;;;28.75;26.50;;;;;12.02;68.84;101806.56;6340851;22;45262;-80
2022/01/02 01:59:04;;;;;;;;;31.25;29.75;;;;;12.03;68.91;101798.59;6340935;22;45097;-80
2022/01/02 02:01:31;;;;;;;;;32.00;26.50;;;;;12.03;69.18;101792.47;6341020;22;45113;-80
2022/01/02 02:03:57;;;;;;;;;28.75;26.00;;;;;12.04;68.91;101792.44;6340838;22;45322;-80
2022/01/02 02:06:23;;;;;;;;;23.75;23.00;;;;;12.08;68.78;101798.50;6340605;22;46260;-81
2022/01/02 02:08:52;;;;;;;;;27.00;24.00;;;;;12.08;68.60;101795.84;6340699;22;45321;-81
2022/01/02 02:11:19;;;;;;;;;28.25;24.00;;;;;12.08;68.72;101785.31;6340157;22;45144;-82
2022/01/02 02:13:44;;;;;;;;;22.50;22.00;;;;;12.09;68.84;101784.44;6340857;22;45169;-82
2022/01/02 02:16:10;;;;;;;;;28.25;25.00;;;;;12.08;68.63;101772.16;6340731;22;45125;-81
2022/01/02 02:18:35;;;;;;;;;28.00;25.00;;;;;12.09;68.61;101765.09;6340827;22;45325;-81
2022/01/02 02:21:01;;;;;;;;;25.00;25.00;;;;;12.08;68.70;101766.88;6340031;22;45769;-81
2022/01/02 02:23:26;;;;;;;;;23.75;22.50;;;;;12.08;68.60;101764.25;6340610;22;45244;-81
2022/01/02 02:25:52;;;;;;;;;25.50;23.00;;;;;12.09;68.69;101754.56;6339379;22;46479;-81
2022/01/02 02:28:18;;;;;;;;;23.00;21.25;;;;;12.13;68.44;101759.75;6340533;22;45440;-81
2022/01/02 02:30:46;;;;;;;;;22.75;21.75;;;;;12.10;68.87;101748.41;6340845;22;45380;-81
2022/01/02 02:33:13;;;;;;;;;22.25;21.50;;;;;12.13;68.51;101751.84;6312170;22;45636;-80
2022/01/02 02:35:42;;;;;;;;;22.00;20.00;;;;;12.14;68.39;101737.78;6340493;22;45372;-79
2022/01/02 02:38:09;;;;;;;;;23.25;20.75;;;;;12.12;68.43;101738.69;6340452;22;45682;-80
2022/01/02 02:40:36;;;;;;;;;25.50;20.00;;;;;12.15;68.35;101728.97;6340732;22;45294;-80
2022/01/02 02:51:13;;;;;;;;;24.00;23.50;;;;;12.15;68.37;101710.50;6340570;22;45200;-80
2022/01/02 02:53:44;;;;;;;;;22.00;21.25;;;;;12.17;68.03;101705.22;6340462;22;45428;-80
2022/01/02 02:56:24;;;;;;;;;20.50;20.25;;;;;12.19;68.18;101706.06;6340076;22;45223;-84
2022/01/02 02:58:55;;;;;;;;;23.25;22.00;;;;;12.20;68.46;101701.66;6339639;22;45425;-84
2022/01/02 03:01:23;;;;;;;;;25.00;20.50;;;;;12.18;68.50;101693.75;6340254;22;45327;-82
2022/01/02 03:03:48;;;;;;;;;28.75;23.75;;;;;12.18;68.27;101696.41;6340462;22;45235;-83
2022/01/02 03:06:15;;;;;;;;;24.00;22.00;;;;;12.20;68.22;101696.38;6339710;22;45295;-82
2022/01/02 03:08:42;;;;;;;;;22.75;20.75;;;;;12.17;68.11;101699.97;6340482;22;45341;-80
2022/01/02 03:11:13;;;;;;;;;29.00;23.00;;;;;12.15;67.85;101699.97;6340144;22;45674;-81
2022/01/02 03:13:39;;;;;;;;;18.75;18.25;;;;;12.19;68.06;101710.44;6339910;22;45361;-80
2022/01/02 03:16:04;;;;;;;;;22.00;18.00;;;;;12.19;68.39;101710.44;6340433;22;45524;-80
2022/01/02 03:18:30;;;;;;;;;21.00;19.25;;;;;12.19;68.08;101695.50;6340340;22;45259;-80
2022/01/02 03:20:55;;;;;;;;;17.75;16.75;;;;;12.21;68.07;101677.00;6339849;22;45204;-79
2022/01/02 03:23:21;;;;;;;;;21.50;21.50;;;;;12.19;67.89;101660.38;6340232;22;45188;-79
2022/01/02 03:25:46;;;;;;;;;18.50;17.50;;;;;12.20;67.96;101662.97;6340069;22;46098;-79
2022/01/02 03:28:11;;;;;;;;;18.50;17.00;;;;;12.23;67.93;101656.75;6340109;22;45133;-79
2022/01/02 03:30:37;;;;;;;;;17.75;16.00;;;;;12.20;67.72;101662.97;6340293;22;45186;-79
2022/01/02 03:33:02;;;;;;;;;20.50;17.00;;;;;12.20;67.97;101681.41;6340283;22;45210;-79
2022/01/02 03:35:28;;;;;;;;;19.50;18.00;;;;;12.23;68.08;101701.56;6340000;22;45271;-79
2022/01/02 03:37:53;;;;;;;;;18.50;14.25;;;;;12.25;67.52;101694.47;6341954;22;45206;-79
2022/01/02 03:40:19;;;;;;;;;21.00;19.50;;;;;12.27;67.36;101687.41;6341872;22;45187;-79
2022/01/02 03:42:45;;;;;;;;;15.25;15.25;;;;;12.28;67.45;101683.84;6341684;22;45146;-79
2022/01/02 03:45:11;;;;;;;;;18.50;15.50;;;;;12.31;67.58;101691.69;6341870;22;45470;-78
2022/01/02 03:47:37;;;;;;;;;20.75;16.50;;;;;12.29;67.37;101675.06;6341739;22;45347;-79
2022/01/02 03:50:04;;;;;;;;;14.25;14.00;;;;;12.32;67.64;101676.75;6341531;22;45342;-80
2022/01/02 03:52:30;;;;;;;;;21.00;16.75;;;;;12.32;67.66;101668.84;6341822;22;45373;-78
2022/01/02 03:54:56;;;;;;;;;18.50;16.50;;;;;12.37;67.32;101669.59;6341059;22;46312;-78
2022/01/02 03:57:21;;;;;;;;;16.75;16.00;;;;;12.36;67.20;101658.19;6341141;22;45148;-78
2022/01/02 03:59:47;;;;;;;;;18.25;16.25;;;;;12.40;67.16;101651.03;6341777;22;45168;-78
2022/01/02 04:02:12;;;;;;;;;22.75;17.25;;;;;12.40;67.40;101655.44;6312788;22;45554;-81
2022/01/02 04:04:38;;;;;;;;;16.75;15.75;;;;;12.42;67.37;101654.50;6313384;22;47018;-81
2022/01/02 04:07:04;;;;;;;;;17.00;16.25;;;;;12.44;67.18;101651.84;6341570;22;45235;-81
2022/01/02 04:09:30;;;;;;;;;19.00;16.50;;;;;12.42;67.39;101662.41;6341726;22;45152;-82
2022/01/02 04:11:55;;;;;;;;;15.25;15.25;;;;;12.42;67.18;101661.56;6312742;22;47607;-82
2022/01/02 04:14:21;;;;;;;;;21.50;15.25;;;;;12.45;66.92;101650.91;6313458;22;46899;-82
2022/01/02 04:16:46;;;;;;;;;20.00;16.25;;;;;12.42;66.82;101646.59;6341499;22;45364;-82
2022/01/02 04:19:12;;;;;;;;;16.00;16.00;;;;;12.44;66.86;101655.34;6341881;22;45198;-82
2022/01/02 04:21:37;;;;;;;;;15.25;15.00;;;;;12.43;66.85;101652.72;6341051;22;45475;-82
2022/01/02 04:24:03;;;;;;;;;15.25;14.00;;;;;12.40;67.26;101653.69;6341368;22;45380;-82
2022/01/02 04:26:28;;;;;;;;;16.00;16.00;;;;;12.42;67.35;101653.66;6341138;22;45324;-82
2022/01/02 04:28:54;;;;;;;;;18.00;16.00;;;;;12.43;66.99;101631.66;6341693;22;45317;-81
2022/01/02 04:31:19;;;;;;;;;17.25;16.25;;;;;12.42;67.05;101617.59;6341592;22;45196;-82
2022/01/02 04:33:44;;;;;;;;;21.00;15.00;;;;;12.42;67.33;101624.66;6341533;22;45236;-82
2022/01/02 04:36:10;;;;;;;;;17.00;17.00;;;;;12.41;67.15;101634.34;6341010;22;45273;-81
2022/01/02 04:38:37;;;;;;;;;14.75;14.25;;;;;12.41;67.18;101633.47;6341397;22;45348;-82
2022/01/02 04:41:02;;;;;;;;;17.25;14.00;;;;;12.41;66.93;101630.81;6341352;22;45262;-82
2022/01/02 04:43:28;;;;;;;;;19.25;16.50;;;;;12.42;67.02;101633.41;6341422;22;46333;-82
2022/01/02 04:45:53;;;;;;;;;16.50;15.00;;;;;12.41;66.96;101622.91;6313025;22;45103;-81
2022/01/02 04:48:19;;;;;;;;;20.50;16.25;;;;;12.40;67.50;101621.16;6340872;22;45158;-81
2022/01/02 04:50:44;;;;;;;;;17.00;17.00;;;;;12.41;67.11;101623.78;6340792;22;45398;-81
2022/01/02 04:53:10;;;;;;;;;20.00;17.75;;;;;12.40;66.94;101616.78;6340257;22;45280;-81
2022/01/02 04:55:35;;;;;;;;;18.50;14.50;;;;;12.41;67.09;101601.81;6339914;22;45326;-80
2022/01/02 04:58:01;;;;;;;;;17.75;14.25;;;;;12.40;66.97;101605.34;6341055;22;45261;-81
2022/01/02 05:00:26;;;;;;;;;14.50;14.50;;;;;12.40;66.97;101600.94;6312835;22;46317;-80
2022/01/02 05:02:52;;;;;;;;;16.75;15.00;;;;;12.42;66.85;101593.03;6341378;22;46347;-80
2022/01/02 05:05:18;;;;;;;;;14.75;14.75;;;;;12.40;66.80;101585.13;6341224;22;45234;-82
2022/01/02 05:07:44;;;;;;;;;16.00;15.00;;;;;12.43;67.20;101576.28;6341395;22;45441;-79
2022/01/02 05:10:10;;;;;;;;;15.50;15.00;;;;;12.42;66.93;101582.47;6341139;22;45357;-79
2022/01/02 05:12:35;;;;;;;;;14.25;14.25;;;;;12.42;67.06;101582.47;6340875;22;45333;-86
2022/01/02 05:15:01;;;;;;;;;19.75;17.00;;;;;12.41;67.04;101559.63;6340994;22;45144;-81
2022/01/02 05:17:27;;;;;;;;;15.00;13.00;;;;;12.41;66.97;101572.81;6341415;22;45204;-81
2022/01/02 05:19:53;;;;;;;;;13.25;11.75;;;;;12.43;66.76;101589.47;6312545;22;45277;-83
2022/01/02 05:22:19;;;;;;;;;13.00;13.00;;;;;12.41;66.81;101580.72;6340766;22;46366;-83
2022/01/02 05:24:44;;;;;;;;;16.75;15.75;;;;;12.42;67.38;101582.47;6312714;22;45180;-81
2022/01/02 05:27:09;;;;;;;;;12.00;10.75;;;;;12.40;66.66;101579.00;6340921;22;45203;-81
2022/01/02 05:29:35;;;;;;;;;15.50;14.00;;;;;12.41;66.63;101570.19;6340937;22;45494;-81
2022/01/02 05:32:00;;;;;;;;;13.00;13.00;;;;;12.41;66.77;101565.78;6340804;22;45216;-81
2022/01/02 05:34:25;;;;;;;;;14.75;12.75;;;;;12.43;66.85;101563.09;6340881;22;45156;-81
2022/01/02 05:36:51;;;;;;;;;13.00;13.00;;;;;12.43;66.47;101555.19;6341207;22;45266;-81
2022/01/02 05:39:18;;;;;;;;;15.25;13.25;;;;;12.44;66.49;101560.44;6341182;22;45275;-80
2022/01/02 05:41:44;;;;;;;;;12.25;12.25;;;;;12.48;66.39;101559.44;6340914;22;45347;-80
2022/01/02 05:44:09;;;;;;;;;16.75;12.50;;;;;12.47;66.75;101559.50;6340976;22;45631;-80
2022/01/02 05:46:35;;;;;;;;;14.75;13.00;;;;;12.49;66.56;101552.41;6341075;22;45251;-80
2022/01/02 05:49:00;;;;;;;;;12.00;11.25;;;;;12.51;66.23;101554.97;6340503;22;45647;-80
2022/01/02 05:51:25;;;;;;;;;13.50;11.75;;;;;12.53;66.32;101561.06;6312400;22;46001;-80
2022/01/02 05:53:51;;;;;;;;;16.75;14.50;;;;;12.55;66.34;101581.22;6341025;22;45336;-80
2022/01/02 05:56:16;;;;;;;;;13.00;13.00;;;;;12.53;66.11;101574.25;6340836;22;45188;-80
2022/01/02 05:58:41;;;;;;;;;12.75;12.00;;;;;12.54;66.37;101566.31;6340718;22;45319;-80
2022/01/02 06:01:07;;;;;;;;;14.50;14.00;;;;;12.58;66.18;101569.72;6340953;22;45190;-80
2022/01/02 06:03:32;;;;;;;;;15.50;14.00;;;;;12.56;65.97;101561.84;6340986;22;45294;-80
2022/01/02 06:05:58;;;;;;;;;13.75;11.50;;;;;12.57;65.78;101571.47;6340858;22;45338;-81
2022/01/02 06:08:23;;;;;;;;;11.50;10.75;;;;;12.60;65.53;101571.41;6341058;22;45369;-80
2022/01/02 06:10:49;;;;;;;;;11.75;11.75;;;;;12.62;65.21;101560.81;6340742;22;45225;-80
2022/01/02 06:13:14;;;;;;;;;10.25;9.75;;;;;12.64;65.37;101564.28;6340939;22;45206;-85
2022/01/02 06:15:39;;;;;;;;;12.75;11.00;;;;;12.68;65.45;101552.72;6312634;22;45194;-85
2022/01/02 06:18:05;;;;;;;;;11.50;8.75;;;;;12.68;65.34;101573.84;6312769;22;46952;-81
2022/01/02 06:20:31;;;;;;;;;10.00;8.75;;;;;12.73;65.15;101557.88;6340583;22;45210;-81
2022/01/02 06:22:56;;;;;;;;;14.00;11.75;;;;;12.76;65.04;101544.59;6312638;22;45379;-78
2022/01/02 06:25:22;;;;;;;;;14.00;10.50;;;;;12.77;64.96;101567.41;6340945;22;45372;-79
2022/01/02 06:27:48;;;;;;;;;10.00;9.00;;;;;12.82;65.54;101585.75;6340419;22;45351;-79
2022/01/02 06:30:13;;;;;;;;;14.00;10.00;;;;;12.83;65.54;101572.53;6340906;22;45367;-81
2022/01/02 06:32:39;;;;;;;;;9.50;9.00;;;;;12.84;65.38;101573.38;6340743;22;45338;-80
2022/01/02 06:35:05;;;;;;;;;14.25;11.00;;;;;12.86;65.06;101581.25;6341066;22;45320;-81
2022/01/02 06:37:30;;;;;;;;;11.50;9.25;;;;;12.89;65.07;101589.09;6340536;22;45342;-81
2022/01/02 06:39:56;;;;;;;;;9.25;8.00;;;;;12.91;64.85;101589.91;6340862;22;46196;-80
2022/01/02 06:42:21;;;;;;;;;12.25;10.50;;;;;12.91;64.50;101589.91;6340701;22;45111;-81
2022/01/02 06:44:48;;;;;;;;;11.00;10.00;;;;;12.92;64.87;101568.75;6340729;22;45187;-81
2022/01/02 06:47:14;;;;;;;;;12.75;10.50;;;;;12.93;65.20;101566.97;6312183;22;45310;-82
2022/01/02 06:49:40;;;;;;;;;8.75;8.25;;;;;12.96;65.18;101564.25;6312128;22;46942;-80
2022/01/02 06:52:06;;;;;;;;;9.00;9.00;;;;;12.98;64.80;101574.75;6340236;22;45643;-81
2022/01/02 06:54:31;;;;;;;;;11.75;11.00;;;;;13.00;64.28;101592.25;6341016;22;45226;-81
2022/01/02 06:56:57;;;;;;;;;10.25;10.25;;;;;13.01;64.71;101585.22;6339973;22;45317;-81
2022/01/02 06:59:22;;;;;;;;;11.25;10.50;;;;;13.05;64.73;101597.41;6340427;22;46336;-81
2022/01/02 07:01:48;;;;;;;;;11.25;9.25;;;;;13.04;64.80;101593.91;6340666;22;45274;-80
2022/01/02 07:04:13;;;;;;;;;8.25;8.25;;;;;13.06;64.29;101583.31;6340587;22;45365;-86
2022/01/02 07:06:39;;;;;;;;;11.50;10.50;;;;;13.05;64.35;101587.72;6340223;22;45360;-85
2022/01/02 07:09:04;;;;;;;;;13.75;11.00;;;;;13.07;64.51;101573.59;6340255;22;46466;-86
2022/01/02 07:11:30;;;;;;;;;8.25;8.25;;;;;13.07;64.33;101579.75;6340749;22;45341;-85
2022/01/02 07:13:55;;;;;;;;;10.00;10.00;;;;;13.08;64.27;101583.25;6341829;22;45603;-85
2022/01/02 07:16:21;;;;;;;;;10.25;10.25;;;;;13.05;64.16;101576.28;6341085;22;45483;-85
2022/01/02 07:18:46;;;;;;;;;14.50;13.00;;;;;13.05;63.83;101590.34;6313439;22;48295;-85
2022/01/02 07:21:11;;;;;;;;;8.50;7.50;;;;;13.08;64.14;101585.91;6341457;22;45244;-85
2022/01/02 07:23:37;;;;;;;;;15.75;13.50;;;;;13.05;64.01;101592.13;6341778;22;45267;-85
2022/01/02 07:26:03;;;;;;;;;13.00;11.00;;;;;13.03;64.07;101605.38;6341316;22;45139;-85
2022/01/02 07:28:29;;;;;;;;;10.25;10.25;;;;;13.01;64.31;101615.09;6341429;22;45595;-85
2022/01/02 07:30:55;;;;;;;;;10.25;8.25;;;;;13.01;64.06;101620.38;6341856;22;45245;-85
2022/01/02 07:33:20;;;;;;;;;11.75;10.00;;;;;13.00;64.15;101623.94;6341840;22;45215;-86
2022/01/02 07:35:45;;;;;;;;;13.25;12.25;;;;;12.99;64.08;101616.06;6341575;22;45393;-86
2022/01/02 07:38:11;;;;;;;;;14.25;11.25;;;;;12.97;64.03;101620.50;6342017;22;45385;-86
2022/01/02 07:40:36;;;;;;;;;10.75;10.00;;;;;12.98;64.41;101627.53;6341474;22;45405;-85
2022/01/02 07:43:01;;;;;;;;;11.50;10.25;;;;;12.97;64.43;101629.28;6342164;22;45234;-85
2022/01/02 07:45:27;;;;;;;;;15.00;11.50;;;;;12.96;64.66;101627.59;6341513;22;45439;-85
2022/01/02 07:47:52;;;;;;;;;11.50;10.50;;;;;12.97;64.97;101644.25;6313000;22;47908;-90
2022/01/02 07:50:18;;;;;;;;;12.50;11.25;;;;;12.94;64.83;101634.66;6313013;22;45282;-82
2022/01/02 07:52:44;;;;;;;;;10.75;10.75;;;;;12.99;64.68;101647.75;6341931;22;45371;-80
2022/01/02 07:55:09;;;;;;;;;11.75;11.50;;;;;13.01;65.03;101645.91;6341123;22;45236;-80
2022/01/02 07:57:35;;;;;;;;;13.25;10.00;;;;;13.00;65.04;101650.31;6312429;22;45855;-89
2022/01/02 08:00:00;;;;;;;;;14.00;13.00;;;;;12.99;64.96;101661.78;6313037;22;45339;-84
2022/01/02 08:02:26;;;;;;;;;13.75;11.25;;;;;13.04;65.51;101670.44;6312937;22;45700;-86
2022/01/02 08:04:51;;;;;;;;;15.00;12.25;;;;;13.02;64.87;101664.34;6313493;22;46080;-92
2022/01/02 08:07:16;;;;;;;;;13.25;13.25;;;;;13.04;64.97;101682.75;6341152;22;45494;-87
2022/01/02 08:09:42;;;;;;;;;9.75;8.50;;;;;13.04;64.90;101677.47;6341123;22;45276;-87
2022/01/02 08:12:07;;;;;;;;;12.50;11.00;;;;;13.03;64.81;101679.28;6312552;22;45612;-86
2022/01/02 08:14:33;;;;;;;;;14.75;14.25;;;;;13.01;64.82;101690.78;6314873;22;45406;-86
2022/01/02 08:16:58;;;;;;;;;17.75;17.00;;;;;13.00;64.66;101703.09;6313487;22;48374;-87
2022/01/02 08:19:23;;;;;;;;;15.50;14.25;;;;;13.01;64.66;101703.97;6341030;22;45252;-87
2022/01/02 08:21:49;;;;;;;;;16.25;14.00;;;;;12.97;64.51;101700.53;6341118;22;45154;-87
2022/01/02 08:24:14;;;;;;;;;15.50;13.25;;;;;12.96;64.37;101703.22;6340966;22;45466;-87
2022/01/02 08:26:40;;;;;;;;;10.25;9.75;;;;;12.96;64.72;101700.59;6339515;22;45583;-87
2022/01/02 08:29:05;;;;;;;;;15.50;11.75;;;;;12.95;64.99;101715.56;6341416;22;45232;-87
2022/01/02 08:31:31;;;;;;;;;11.25;9.50;;;;;12.94;64.74;101714.69;6312823;22;45183;-87
2022/01/02 08:33:57;;;;;;;;;11.75;11.75;;;;;12.92;64.74;101716.50;6311293;22;45940;-86
2022/01/02 08:36:23;;;;;;;;;11.50;11.50;;;;;12.93;65.04;101714.75;6340882;22;45369;-87
2022/01/02 08:38:49;;;;;;;;;12.50;11.50;;;;;12.92;65.12;101718.28;6341545;22;45333;-87
2022/01/02 08:41:15;;;;;;;;;12.25;12.00;;;;;12.92;64.97;101718.28;6313058;22;45278;-87
2022/01/02 08:43:41;;;;;;;;;14.75;13.00;;;;;12.87;65.22;101714.88;6313016;22;45905;-88
2022/01/02 08:46:07;;;;;;;;;11.25;10.75;;;;;12.82;65.30;101707.97;6341669;22;45497;-87
2022/01/02 08:48:33;;;;;;;;;14.50;13.50;;;;;12.83;65.23;101709.72;6341149;22;45221;-87
2022/01/02 08:50:59;;;;;;;;;12.50;12.50;;;;;12.85;65.52;101716.69;6313038;22;45160;-87
2022/01/02 08:53:24;;;;;;;;;13.00;13.00;;;;;12.81;65.81;101718.56;6313180;22;46379;-88
2022/01/02 08:55:49;;;;;;;;;16.00;13.50;;;;;12.81;65.96;101732.63;6312702;22;47956;-88
2022/01/02 08:58:15;;;;;;;;;13.75;13.25;;;;;12.79;65.62;101734.44;6312987;22;45195;-88
2022/01/02 09:00:40;;;;;;;;;13.50;12.25;;;;;12.77;65.96;101727.47;6341256;22;45172;-88
2022/01/02 09:03:06;;;;;;;;;12.50;11.25;;;;;12.78;66.18;101738.00;6340686;22;45080;-88
2022/01/02 09:05:32;;;;;;;;;14.00;12.25;;;;;12.74;66.22;101730.19;6340680;22;45275;-88
2022/01/02 09:07:58;;;;;;;;;13.25;13.25;;;;;12.76;66.25;101738.94;6340144;22;45768;-88
2022/01/02 09:10:23;;;;;;;;;14.00;14.00;;;;;12.75;66.00;101734.56;6312808;22;45320;-87
2022/01/02 09:12:49;;;;;;;;;17.25;16.50;;;;;12.77;66.33;101746.78;6340279;22;45426;-86
2022/01/02 09:15:15;;;;;;;;;14.50;12.50;;;;;12.77;66.60;101741.53;6338127;22;45464;-86
2022/01/02 09:17:40;;;;;;;;;12.75;12.75;;;;;12.78;66.30;101751.19;6337485;22;45343;-85
2022/01/02 09:20:08;;;;;;;;;15.75;13.50;;;;;12.79;66.46;101752.06;6311391;22;45599;-86
2022/01/02 09:22:34;;;;;;;;;14.75;13.75;;;;;12.80;66.60;101752.00;6339951;22;45401;-87
2022/01/02 09:25:00;;;;;;;;;14.00;12.50;;;;;12.82;66.81;101755.47;6339950;22;45511;-87
2022/01/02 09:27:25;;;;;;;;;15.50;15.25;;;;;12.88;66.65;101754.44;6340712;22;45234;-86
2022/01/02 09:29:50;;;;;;;;;13.25;12.25;;;;;12.88;66.64;101758.84;6341563;22;45409;-86
2022/01/02 09:32:16;;;;;;;;;16.00;14.00;;;;;12.92;66.71;101752.56;6341019;22;45326;-86
2022/01/02 09:34:41;;;;;;;;;17.75;17.50;;;;;12.93;66.51;101760.47;6340498;22;46312;-86
2022/01/02 09:37:07;;;;;;;;;17.00;13.00;;;;;12.97;66.93;101763.88;6341074;22;45236;-87
2022/01/02 09:39:33;;;;;;;;;16.00;14.50;;;;;13.02;66.83;101759.34;6340945;22;45383;-86
2022/01/02 09:41:59;;;;;;;;;14.00;13.75;;;;;13.08;67.01;101768.88;6312530;22;46981;-87
2022/01/02 09:44:24;;;;;;;;;16.75;14.50;;;;;13.13;67.19;101763.47;6340993;22;45356;-86
2022/01/02 09:46:52;;;;;;;;;18.25;15.00;;;;;13.20;66.88;101757.13;6340536;22;45571;-87
2022/01/02 09:49:20;;;;;;;;;13.25;13.25;;;;;13.23;67.16;101762.31;6312974;22;45165;-87
2022/01/02 09:51:45;;;;;;;;;16.75;13.25;;;;;13.28;66.87;101759.53;6340164;22;45390;-86
2022/01/02 09:54:11;;;;;;;;;18.50;13.50;;;;;13.29;66.59;101750.69;6312007;22;47146;-87
2022/01/02 09:56:36;;;;;;;;;14.25;11.75;;;;;13.33;66.91;101759.41;6340749;22;45461;-86
2022/01/02 09:59:02;;;;;;;;;23.00;15.50;;;;;13.34;66.98;101767.28;6312857;22;45403;-92
2022/01/02 10:01:29;;;;;;;;;15.00;12.50;;;;;13.33;66.89;101756.78;6312193;22;46251;-86
2022/01/02 10:03:57;;;;;;;;;16.75;14.25;;;;;13.36;66.84;101768.09;6340494;22;45407;-85
2022/01/02 10:06:41;;;;;;;;;16.25;13.75;;;;;13.35;66.74;101776.94;6340243;22;45512;-85
2022/01/02 10:09:15;;;;;;;;;16.75;14.00;;;;;13.37;67.12;101772.47;6312762;22;45245;-85
2022/01/02 10:11:40;;;;;;;;;12.75;11.50;;;;;13.35;66.92;101768.16;6340057;22;45386;-87
2022/01/02 10:14:09;;;;;;;;;11.75;11.75;;;;;13.38;67.04;101773.34;6312389;22;47218;-87
2022/01/02 10:16:39;;;;;;;;;17.50;15.25;;;;;13.43;67.15;101774.09;6310637;22;45598;-87
2022/01/02 10:19:19;;;;;;;;;12.75;9.50;;;;;13.46;67.13;101765.19;6313029;22;45350;-86
2022/01/02 10:22:14;;;;;;;;;12.50;12.25;;;;;13.46;67.11;101760.78;6339309;22;45233;-86
2022/01/02 10:24:46;;;;;;;;;12.75;10.25;;;;;13.47;67.37;101767.81;6306434;22;46507;-86
2022/01/02 10:27:21;;;;;;;;;12.00;10.25;;;;;13.49;67.26;101765.97;6312452;22;45803;-86
2022/01/02 10:29:58;;;;;;;;;10.00;9.00;;;;;13.52;67.29;101757.09;6340486;22;45356;-86
2022/01/02 10:32:30;;;;;;;;;15.50;12.00;;;;;13.53;67.28;101764.09;6340720;22;45199;-85
2022/01/02 10:35:09;;;;;;;;;18.00;12.75;;;;;13.55;67.21;101764.94;6340657;22;45764;-85
2022/01/02 10:37:35;;;;;;;;;11.00;10.00;;;;;13.55;67.11;101759.66;6339811;22;45141;-85
2022/01/02 10:40:00;;;;;;;;;11.50;9.00;;;;;13.58;67.24;101761.38;6340280;22;45249;-85
2022/01/02 10:42:27;;;;;;;;;8.50;8.50;;;;;13.59;67.49;101769.25;6340376;22;45144;-86
2022/01/02 10:44:53;;;;;;;;;8.75;8.75;;;;;13.65;67.40;101765.56;6340022;22;45253;-85
2022/01/02 10:47:21;;;;;;;;;9.75;9.75;;;;;13.67;67.60;101774.31;6341840;22;45318;-85
2022/01/02 10:50:04;;;;;;;;;10.75;8.00;;;;;13.72;67.46;101767.13;6341714;22;45230;-85
2022/01/02 10:52:40;;;;;;;;;11.75;11.25;;;;;13.79;67.69;101767.78;6313035;22;47212;-86
2022/01/02 10:55:25;;;;;;;;;13.50;9.75;;;;;13.84;67.75;101759.72;6341194;22;45450;-85
2022/01/02 10:57:53;;;;;;;;;12.00;10.25;;;;;13.88;67.54;101766.63;6341779;22;45578;-86
2022/01/02 11:00:22;;;;;;;;;9.00;8.00;;;;;13.95;67.65;101762.88;6341863;22;45149;-86
2022/01/02 11:02:47;;;;;;;;;7.25;7.25;;;;;14.02;67.22;101757.44;6341692;22;45378;-87
2022/01/02 11:05:15;;;;;;;;;9.25;7.75;;;;;14.11;67.47;101765.06;6313183;22;46980;-87
2022/01/02 11:07:45;;;;;;;;;9.00;7.25;;;;;14.16;67.15;101773.72;6340863;22;45337;-86
2022/01/02 11:10:13;;;;;;;;;9.00;6.00;;;;;14.21;67.35;101775.34;6341795;22;45173;-86
2022/01/02 11:12:41;;;;;;;;;5.75;5.75;;;;;14.26;67.11;101762.84;6341389;22;45334;-86
2022/01/02 11:15:09;;;;;;;;;11.25;8.00;;;;;14.29;67.05;101755.69;6341958;22;45448;-86
2022/01/02 11:17:38;;;;;;;;;11.50;10.00;;;;;14.35;66.90;101764.31;6341419;22;45133;-87
2022/01/02 11:20:05;;;;;;;;;7.00;7.00;;;;;14.42;67.02;101771.13;6341588;22;46231;-86
2022/01/02 11:22:40;;;;;;;;;9.75;6.25;;;;;14.48;66.67;101775.38;6340602;22;46255;-86